sensor_id;sensor_type;location;lat;lon;timestamp;temperature;humidity
77496;SHT31;66600;48.378;9.948;2023-04-03T00:01:18;2.48;78.93
77496;SHT31;66600;48.378;9.948;2023-04-03T00:03:43;2.50;79.04
77496;SHT31;66600;48.378;9.948;2023-04-03T00:06:10;2.46;79.06
77496;SHT31;66600;48.378;9.948;2023-04-03T00:08:36;2.39;79.20
77496;SHT31;66600;48.378;9.948;2023-04-03T00:11:03;2.44;79.28
77496;SHT31;66600;48.378;9.948;2023-04-03T00:13:28;2.38;79.05
77496;SHT31;66600;48.378;9.948;2023-04-03T00:15:54;2.38;78.93
77496;SHT31;66600;48.378;9.948;2023-04-03T00:18:20;2.41;79.28
77496;SHT31;66600;48.378;9.948;2023-04-03T00:20:46;2.44;79.24
77496;SHT31;66600;48.378;9.948;2023-04-03T00:23:11;2.50;79.09
77496;SHT31;66600;48.378;9.948;2023-04-03T00:25:36;2.53;78.95
77496;SHT31;66600;48.378;9.948;2023-04-03T00:28:02;2.52;77.89
77496;SHT31;66600;48.378;9.948;2023-04-03T00:30:28;2.45;75.16
77496;SHT31;66600;48.378;9.948;2023-04-03T00:32:54;2.45;74.60
77496;SHT31;66600;48.378;9.948;2023-04-03T00:35:20;2.46;74.62
77496;SHT31;66600;48.378;9.948;2023-04-03T00:37:46;2.45;74.80
77496;SHT31;66600;48.378;9.948;2023-04-03T00:40:14;2.46;74.56
77496;SHT31;66600;48.378;9.948;2023-04-03T00:42:41;2.41;74.45
77496;SHT31;66600;48.378;9.948;2023-04-03T00:45:26;2.41;74.42
77496;SHT31;66600;48.378;9.948;2023-04-03T00:47:52;2.39;73.49
77496;SHT31;66600;48.378;9.948;2023-04-03T00:50:18;2.38;73.44
77496;SHT31;66600;48.378;9.948;2023-04-03T00:52:44;2.37;72.90
77496;SHT31;66600;48.378;9.948;2023-04-03T00:55:11;2.41;73.62
77496;SHT31;66600;48.378;9.948;2023-04-03T00:57:37;2.35;72.76
77496;SHT31;66600;48.378;9.948;2023-04-03T01:00:10;2.38;72.52
77496;SHT31;66600;48.378;9.948;2023-04-03T01:02:35;2.41;72.60
77496;SHT31;66600;48.378;9.948;2023-04-03T01:05:01;2.46;72.36
77496;SHT31;66600;48.378;9.948;2023-04-03T01:07:29;2.42;72.14
77496;SHT31;66600;48.378;9.948;2023-04-03T01:10:01;2.35;72.46
77496;SHT31;66600;48.378;9.948;2023-04-03T01:12:29;2.41;72.11
77496;SHT31;66600;48.378;9.948;2023-04-03T01:14:56;2.29;71.92
77496;SHT31;66600;48.378;9.948;2023-04-03T01:17:34;2.37;72.04
77496;SHT31;66600;48.378;9.948;2023-04-03T01:25:45;2.27;72.17
77496;SHT31;66600;48.378;9.948;2023-04-03T01:28:14;2.28;72.03
77496;SHT31;66600;48.378;9.948;2023-04-03T01:33:21;2.28;72.15
77496;SHT31;66600;48.378;9.948;2023-04-03T01:35:46;2.28;71.35
77496;SHT31;66600;48.378;9.948;2023-04-03T01:38:11;2.32;71.17
77496;SHT31;66600;48.378;9.948;2023-04-03T01:40:37;2.24;70.88
77496;SHT31;66600;48.378;9.948;2023-04-03T01:43:02;2.25;71.29
77496;SHT31;66600;48.378;9.948;2023-04-03T01:45:27;2.24;70.43
77496;SHT31;66600;48.378;9.948;2023-04-03T01:47:53;2.15;69.36
77496;SHT31;66600;48.378;9.948;2023-04-03T01:50:18;2.17;69.58
77496;SHT31;66600;48.378;9.948;2023-04-03T01:52:43;2.21;68.81
77496;SHT31;66600;48.378;9.948;2023-04-03T01:55:09;2.24;68.27
77496;SHT31;66600;48.378;9.948;2023-04-03T01:57:34;2.21;68.40
77496;SHT31;66600;48.378;9.948;2023-04-03T02:00:00;2.15;68.03
77496;SHT31;66600;48.378;9.948;2023-04-03T02:02:25;2.11;68.34
77496;SHT31;66600;48.378;9.948;2023-04-03T02:04:50;2.14;68.78
77496;SHT31;66600;48.378;9.948;2023-04-03T02:07:16;2.14;68.09
77496;SHT31;66600;48.378;9.948;2023-04-03T02:09:41;2.13;66.84
77496;SHT31;66600;48.378;9.948;2023-04-03T02:12:06;2.13;66.90
77496;SHT31;66600;48.378;9.948;2023-04-03T02:14:32;2.14;67.45
77496;SHT31;66600;48.378;9.948;2023-04-03T02:16:57;2.15;67.41
77496;SHT31;66600;48.378;9.948;2023-04-03T02:19:23;2.14;67.46
77496;SHT31;66600;48.378;9.948;2023-04-03T02:21:48;2.10;66.60
77496;SHT31;66600;48.378;9.948;2023-04-03T02:24:13;2.07;66.21
77496;SHT31;66600;48.378;9.948;2023-04-03T02:26:38;2.08;67.17
77496;SHT31;66600;48.378;9.948;2023-04-03T02:29:04;2.11;67.07
77496;SHT31;66600;48.378;9.948;2023-04-03T02:31:30;2.08;67.33
77496;SHT31;66600;48.378;9.948;2023-04-03T02:33:55;2.10;67.93
77496;SHT31;66600;48.378;9.948;2023-04-03T02:36:20;2.11;67.42
77496;SHT31;66600;48.378;9.948;2023-04-03T02:38:46;2.08;67.51
77496;SHT31;66600;48.378;9.948;2023-04-03T02:41:11;2.13;67.99
77496;SHT31;66600;48.378;9.948;2023-04-03T02:43:37;2.17;67.40
77496;SHT31;66600;48.378;9.948;2023-04-03T02:46:04;2.22;67.37
77496;SHT31;66600;48.378;9.948;2023-04-03T02:48:29;2.21;67.24
77496;SHT31;66600;48.378;9.948;2023-04-03T02:50:54;2.17;67.26
77496;SHT31;66600;48.378;9.948;2023-04-03T02:53:20;2.11;67.23
77496;SHT31;66600;48.378;9.948;2023-04-03T02:55:46;2.11;68.03
77496;SHT31;66600;48.378;9.948;2023-04-03T02:58:11;2.08;68.40
77496;SHT31;66600;48.378;9.948;2023-04-03T03:00:37;2.13;68.51
77496;SHT31;66600;48.378;9.948;2023-04-03T03:03:03;2.11;68.91
77496;SHT31;66600;48.378;9.948;2023-04-03T03:05:28;2.07;68.65
77496;SHT31;66600;48.378;9.948;2023-04-03T03:07:54;2.07;68.79
77496;SHT31;66600;48.378;9.948;2023-04-03T03:10:20;2.04;69.44
77496;SHT31;66600;48.378;9.948;2023-04-03T03:12:45;2.06;69.28
77496;SHT31;66600;48.378;9.948;2023-04-03T03:15:11;2.03;69.22
77496;SHT31;66600;48.378;9.948;2023-04-03T03:17:37;2.06;69.35
77496;SHT31;66600;48.378;9.948;2023-04-03T03:20:04;2.07;68.70
77496;SHT31;66600;48.378;9.948;2023-04-03T03:22:29;2.06;68.59
77496;SHT31;66600;48.378;9.948;2023-04-03T03:24:55;1.97;67.99
77496;SHT31;66600;48.378;9.948;2023-04-03T03:27:20;1.96;68.21
77496;SHT31;66600;48.378;9.948;2023-04-03T03:29:46;1.94;66.51
77496;SHT31;66600;48.378;9.948;2023-04-03T03:32:11;2.01;67.36
77496;SHT31;66600;48.378;9.948;2023-04-03T03:34:36;1.96;66.22
77496;SHT31;66600;48.378;9.948;2023-04-03T03:37:02;2.01;66.80
77496;SHT31;66600;48.378;9.948;2023-04-03T03:39:27;1.96;64.76
77496;SHT31;66600;48.378;9.948;2023-04-03T03:41:53;1.93;64.55
77496;SHT31;66600;48.378;9.948;2023-04-03T03:44:19;1.90;64.61
77496;SHT31;66600;48.378;9.948;2023-04-03T03:46:44;1.93;64.32
77496;SHT31;66600;48.378;9.948;2023-04-03T03:49:09;1.93;64.36
77496;SHT31;66600;48.378;9.948;2023-04-03T03:51:36;1.90;63.87
77496;SHT31;66600;48.378;9.948;2023-04-03T03:54:01;1.86;64.04
77496;SHT31;66600;48.378;9.948;2023-04-03T03:56:26;1.87;64.08
77496;SHT31;66600;48.378;9.948;2023-04-03T03:58:52;1.86;63.39
77496;SHT31;66600;48.378;9.948;2023-04-03T04:01:17;1.87;63.50
77496;SHT31;66600;48.378;9.948;2023-04-03T04:03:43;1.87;63.46
77496;SHT31;66600;48.378;9.948;2023-04-03T04:06:08;1.86;63.68
77496;SHT31;66600;48.378;9.948;2023-04-03T04:08:33;1.84;63.86
77496;SHT31;66600;48.378;9.948;2023-04-03T04:10:59;1.91;64.12
77496;SHT31;66600;48.378;9.948;2023-04-03T04:13:24;1.90;64.55
77496;SHT31;66600;48.378;9.948;2023-04-03T04:15:50;1.86;64.96
77496;SHT31;66600;48.378;9.948;2023-04-03T04:18:15;1.90;64.80
77496;SHT31;66600;48.378;9.948;2023-04-03T04:20:40;1.83;64.37
77496;SHT31;66600;48.378;9.948;2023-04-03T04:23:06;1.81;64.75
77496;SHT31;66600;48.378;9.948;2023-04-03T04:25:31;1.84;64.69
77496;SHT31;66600;48.378;9.948;2023-04-03T04:27:56;1.87;65.17
77496;SHT31;66600;48.378;9.948;2023-04-03T04:30:22;1.90;64.34
77496;SHT31;66600;48.378;9.948;2023-04-03T04:32:47;1.87;64.52
77496;SHT31;66600;48.378;9.948;2023-04-03T04:35:12;1.84;64.56
77496;SHT31;66600;48.378;9.948;2023-04-03T04:37:37;1.86;65.09
77496;SHT31;66600;48.378;9.948;2023-04-03T04:40:03;1.87;65.38
77496;SHT31;66600;48.378;9.948;2023-04-03T04:42:29;1.84;65.61
77496;SHT31;66600;48.378;9.948;2023-04-03T04:44:54;1.83;65.69
77496;SHT31;66600;48.378;9.948;2023-04-03T04:47:20;1.81;66.01
77496;SHT31;66600;48.378;9.948;2023-04-03T04:49:45;1.81;66.60
77496;SHT31;66600;48.378;9.948;2023-04-03T04:52:12;1.81;66.45
77496;SHT31;66600;48.378;9.948;2023-04-03T04:54:38;1.86;66.79
77496;SHT31;66600;48.378;9.948;2023-04-03T04:57:03;1.81;66.92
77496;SHT31;66600;48.378;9.948;2023-04-03T04:59:29;1.80;67.24
77496;SHT31;66600;48.378;9.948;2023-04-03T05:01:54;1.83;67.41
77496;SHT31;66600;48.378;9.948;2023-04-03T05:04:19;1.76;67.74
77496;SHT31;66600;48.378;9.948;2023-04-03T05:06:45;1.86;68.31
77496;SHT31;66600;48.378;9.948;2023-04-03T05:09:10;1.81;67.97
77496;SHT31;66600;48.378;9.948;2023-04-03T05:11:36;1.76;68.29
77496;SHT31;66600;48.378;9.948;2023-04-03T05:14:01;1.80;68.57
77496;SHT31;66600;48.378;9.948;2023-04-03T05:16:27;1.89;68.58
77496;SHT31;66600;48.378;9.948;2023-04-03T05:18:52;1.77;68.76
77496;SHT31;66600;48.378;9.948;2023-04-03T05:21:17;1.79;68.59
77496;SHT31;66600;48.378;9.948;2023-04-03T05:23:48;1.80;69.05
77496;SHT31;66600;48.378;9.948;2023-04-03T05:26:13;1.72;68.86
77496;SHT31;66600;48.378;9.948;2023-04-03T05:28:38;1.74;69.40
77496;SHT31;66600;48.378;9.948;2023-04-03T05:31:17;1.81;69.61
77496;SHT31;66600;48.378;9.948;2023-04-03T05:33:55;1.77;69.54
77496;SHT31;66600;48.378;9.948;2023-04-03T05:36:20;1.73;69.44
77496;SHT31;66600;48.378;9.948;2023-04-03T05:38:46;1.77;69.67
77496;SHT31;66600;48.378;9.948;2023-04-03T05:41:12;1.73;69.50
77496;SHT31;66600;48.378;9.948;2023-04-03T05:43:37;1.79;69.50
77496;SHT31;66600;48.378;9.948;2023-04-03T05:46:07;1.81;69.27
77496;SHT31;66600;48.378;9.948;2023-04-03T05:48:33;1.93;69.02
77496;SHT31;66600;48.378;9.948;2023-04-03T05:50:58;1.96;69.33
77496;SHT31;66600;48.378;9.948;2023-04-03T05:53:27;1.94;69.26
77496;SHT31;66600;48.378;9.948;2023-04-03T05:55:53;2.03;68.68
77496;SHT31;66600;48.378;9.948;2023-04-03T05:58:19;2.01;69.09
77496;SHT31;66600;48.378;9.948;2023-04-03T06:00:44;1.99;69.27
77496;SHT31;66600;48.378;9.948;2023-04-03T06:03:10;1.87;69.48
77496;SHT31;66600;48.378;9.948;2023-04-03T06:05:36;1.79;69.56
77496;SHT31;66600;48.378;9.948;2023-04-03T06:08:01;1.80;70.06
77496;SHT31;66600;48.378;9.948;2023-04-03T06:10:28;1.72;70.25
77496;SHT31;66600;48.378;9.948;2023-04-03T06:12:53;1.64;70.32
77496;SHT31;66600;48.378;9.948;2023-04-03T06:15:20;1.79;70.62
77496;SHT31;66600;48.378;9.948;2023-04-03T06:17:46;1.84;70.68
77496;SHT31;66600;48.378;9.948;2023-04-03T06:20:12;1.70;70.75
77496;SHT31;66600;48.378;9.948;2023-04-03T06:22:37;1.80;71.09
77496;SHT31;66600;48.378;9.948;2023-04-03T06:25:03;1.81;71.17
77496;SHT31;66600;48.378;9.948;2023-04-03T06:27:28;1.72;71.24
77496;SHT31;66600;48.378;9.948;2023-04-03T06:29:54;1.73;71.32
77496;SHT31;66600;48.378;9.948;2023-04-03T06:32:19;1.76;71.53
77496;SHT31;66600;48.378;9.948;2023-04-03T06:34:45;1.70;71.72
77496;SHT31;66600;48.378;9.948;2023-04-03T06:37:19;1.63;71.91
77496;SHT31;66600;48.378;9.948;2023-04-03T06:39:45;1.66;72.17
77496;SHT31;66600;48.378;9.948;2023-04-03T06:42:10;1.70;72.48
77496;SHT31;66600;48.378;9.948;2023-04-03T06:44:36;1.64;72.60
77496;SHT31;66600;48.378;9.948;2023-04-03T06:47:02;1.70;72.78
77496;SHT31;66600;48.378;9.948;2023-04-03T06:49:27;1.83;72.38
77496;SHT31;66600;48.378;9.948;2023-04-03T06:51:54;1.93;72.28
77496;SHT31;66600;48.378;9.948;2023-04-03T06:54:19;1.86;72.15
77496;SHT31;66600;48.378;9.948;2023-04-03T06:56:44;1.81;72.58
77496;SHT31;66600;48.378;9.948;2023-04-03T06:59:12;1.91;72.39
77496;SHT31;66600;48.378;9.948;2023-04-03T07:01:38;1.97;72.00
77496;SHT31;66600;48.378;9.948;2023-04-03T07:04:04;1.91;72.21
77496;SHT31;66600;48.378;9.948;2023-04-03T07:06:30;1.80;72.53
77496;SHT31;66600;48.378;9.948;2023-04-03T07:11:24;1.80;72.34
77496;SHT31;66600;48.378;9.948;2023-04-03T07:13:50;1.91;72.87
77496;SHT31;66600;48.378;9.948;2023-04-03T07:16:15;2.10;72.50
77496;SHT31;66600;48.378;9.948;2023-04-03T07:18:40;2.06;72.25
77496;SHT31;66600;48.378;9.948;2023-04-03T07:21:06;1.90;72.29
77496;SHT31;66600;48.378;9.948;2023-04-03T07:23:32;2.06;72.70
77496;SHT31;66600;48.378;9.948;2023-04-03T07:25:58;2.20;72.27
77496;SHT31;66600;48.378;9.948;2023-04-03T07:28:24;2.28;72.30
77496;SHT31;66600;48.378;9.948;2023-04-03T07:30:51;2.22;71.94
77496;SHT31;66600;48.378;9.948;2023-04-03T07:33:18;2.11;72.13
77496;SHT31;66600;48.378;9.948;2023-04-03T07:35:44;2.00;72.76
77496;SHT31;66600;48.378;9.948;2023-04-03T07:38:11;2.15;72.56
77496;SHT31;66600;48.378;9.948;2023-04-03T07:40:36;2.49;72.19
77496;SHT31;66600;48.378;9.948;2023-04-03T07:43:03;2.49;71.01
77496;SHT31;66600;48.378;9.948;2023-04-03T07:45:29;2.50;71.22
77496;SHT31;66600;48.378;9.948;2023-04-03T07:47:54;2.60;70.85
77496;SHT31;66600;48.378;9.948;2023-04-03T07:50:20;2.60;71.33
77496;SHT31;66600;48.378;9.948;2023-04-03T07:52:46;2.79;70.52
77496;SHT31;66600;48.378;9.948;2023-04-03T07:55:11;3.03;70.46
77496;SHT31;66600;48.378;9.948;2023-04-03T07:57:37;2.69;70.32
77496;SHT31;66600;48.378;9.948;2023-04-03T08:00:04;2.59;71.15
77496;SHT31;66600;48.378;9.948;2023-04-03T08:02:30;3.15;70.71
77496;SHT31;66600;48.378;9.948;2023-04-03T08:04:57;3.24;69.23
77496;SHT31;66600;48.378;9.948;2023-04-03T08:07:22;3.62;68.19
77496;SHT31;66600;48.378;9.948;2023-04-03T08:09:48;3.13;69.23
77496;SHT31;66600;48.378;9.948;2023-04-03T08:12:13;2.86;69.81
77496;SHT31;66600;48.378;9.948;2023-04-03T08:14:39;2.83;70.09
77496;SHT31;66600;48.378;9.948;2023-04-03T08:17:05;3.51;69.23
77496;SHT31;66600;48.378;9.948;2023-04-03T08:19:31;3.87;68.05
77496;SHT31;66600;48.378;9.948;2023-04-03T08:21:56;3.36;68.25
77496;SHT31;66600;48.378;9.948;2023-04-03T08:24:24;3.18;68.74
77496;SHT31;66600;48.378;9.948;2023-04-03T08:26:49;3.15;68.74
77496;SHT31;66600;48.378;9.948;2023-04-03T08:29:15;3.36;68.88
77496;SHT31;66600;48.378;9.948;2023-04-03T08:31:40;3.42;68.22
77496;SHT31;66600;48.378;9.948;2023-04-03T08:34:05;3.63;67.41
77496;SHT31;66600;48.378;9.948;2023-04-03T08:36:31;3.48;67.21
77496;SHT31;66600;48.378;9.948;2023-04-03T08:38:57;3.66;67.85
77496;SHT31;66600;48.378;9.948;2023-04-03T08:47:02;4.40;66.12
77496;SHT31;66600;48.378;9.948;2023-04-03T08:49:31;3.75;66.78
77496;SHT31;66600;48.378;9.948;2023-04-03T08:51:57;4.00;66.85
77496;SHT31;66600;48.378;9.948;2023-04-03T08:54:30;4.48;66.20
77496;SHT31;66600;48.378;9.948;2023-04-03T08:57:00;4.80;65.44
77496;SHT31;66600;48.378;9.948;2023-04-03T08:59:28;4.52;65.24
77496;SHT31;66600;48.378;9.948;2023-04-03T09:01:56;4.58;65.59
77496;SHT31;66600;48.378;9.948;2023-04-03T09:04:23;4.90;64.60
77496;SHT31;66600;48.378;9.948;2023-04-03T09:06:54;4.89;63.46
77496;SHT31;66600;48.378;9.948;2023-04-03T09:09:31;4.82;64.99
77496;SHT31;66600;48.378;9.948;2023-04-03T09:17:56;5.10;65.35
77496;SHT31;66600;48.378;9.948;2023-04-03T09:20:37;5.40;63.19
77496;SHT31;66600;48.378;9.948;2023-04-03T09:23:16;5.35;62.22
77496;SHT31;66600;48.378;9.948;2023-04-03T09:25:43;4.76;64.89
77496;SHT31;66600;48.378;9.948;2023-04-03T09:28:09;4.55;64.85
77496;SHT31;66600;48.378;9.948;2023-04-03T09:30:35;4.51;64.76
77496;SHT31;66600;48.378;9.948;2023-04-03T09:33:00;4.56;64.88
77496;SHT31;66600;48.378;9.948;2023-04-03T09:37:58;3.90;65.98
77496;SHT31;66600;48.378;9.948;2023-04-03T09:42:50;4.30;66.52
77496;SHT31;66600;48.378;9.948;2023-04-03T09:45:35;3.91;65.62
77496;SHT31;66600;48.378;9.948;2023-04-03T09:48:16;4.00;66.48
77496;SHT31;66600;48.378;9.948;2023-04-03T09:53:34;4.34;65.42
77496;SHT31;66600;48.378;9.948;2023-04-03T09:56:02;4.22;64.06
77496;SHT31;66600;48.378;9.948;2023-04-03T09:58:38;4.34;65.14
77496;SHT31;66600;48.378;9.948;2023-04-03T10:01:04;4.48;65.46
77496;SHT31;66600;48.378;9.948;2023-04-03T10:03:34;4.49;64.85
77496;SHT31;66600;48.378;9.948;2023-04-03T10:06:02;4.75;64.29
77496;SHT31;66600;48.378;9.948;2023-04-03T10:08:31;4.87;64.27
77496;SHT31;66600;48.378;9.948;2023-04-03T10:11:14;4.20;64.96
77496;SHT31;66600;48.378;9.948;2023-04-03T10:13:58;4.08;65.60
77496;SHT31;66600;48.378;9.948;2023-04-03T10:16:44;4.44;64.81
77496;SHT31;66600;48.378;9.948;2023-04-03T10:25:02;4.79;63.56
77496;SHT31;66600;48.378;9.948;2023-04-03T10:27:48;4.33;63.58
77496;SHT31;66600;48.378;9.948;2023-04-03T10:30:32;4.72;63.85
77496;SHT31;66600;48.378;9.948;2023-04-03T10:38:54;4.25;64.00
77496;SHT31;66600;48.378;9.948;2023-04-03T10:41:47;4.04;61.22
77496;SHT31;66600;48.378;9.948;2023-04-03T10:44:27;4.17;60.55
77496;SHT31;66600;48.378;9.948;2023-04-03T10:52:41;4.34;59.34
77496;SHT31;66600;48.378;9.948;2023-04-03T10:58:02;4.83;59.52
77496;SHT31;66600;48.378;9.948;2023-04-03T11:00:44;4.48;60.94
77496;SHT31;66600;48.378;9.948;2023-04-03T11:03:29;4.07;62.05
77496;SHT31;66600;48.378;9.948;2023-04-03T11:05:57;4.44;60.68
77496;SHT31;66600;48.378;9.948;2023-04-03T11:10:53;4.75;59.80
77496;SHT31;66600;48.378;9.948;2023-04-03T11:13:49;4.56;59.90
77496;SHT31;66600;48.378;9.948;2023-04-03T11:16:22;4.94;59.23
77496;SHT31;66600;48.378;9.948;2023-04-03T11:18:52;4.79;61.04
77496;SHT31;66600;48.378;9.948;2023-04-03T11:21:22;4.44;63.04
77496;SHT31;66600;48.378;9.948;2023-04-03T11:23:51;4.69;63.76
77496;SHT31;66600;48.378;9.948;2023-04-03T11:26:19;4.59;64.85
77496;SHT31;66600;48.378;9.948;2023-04-03T11:28:45;4.68;64.57
77496;SHT31;66600;48.378;9.948;2023-04-03T11:34:05;5.06;62.01
77496;SHT31;66600;48.378;9.948;2023-04-03T11:36:39;5.04;61.66
77496;SHT31;66600;48.378;9.948;2023-04-03T11:39:30;5.63;60.29
77496;SHT31;66600;48.378;9.948;2023-04-03T11:42:14;5.10;61.91
77496;SHT31;66600;48.378;9.948;2023-04-03T11:44:40;5.09;63.04
77496;SHT31;66600;48.378;9.948;2023-04-03T11:47:08;5.49;59.99
77496;SHT31;66600;48.378;9.948;2023-04-03T11:49:53;5.24;57.22
77496;SHT31;66600;48.378;9.948;2023-04-03T12:13:36;4.38;61.79
77496;SHT31;66600;48.378;9.948;2023-04-03T12:16:02;4.30;63.04
77496;SHT31;66600;48.378;9.948;2023-04-03T12:29:29;4.30;62.51
77496;SHT31;66600;48.378;9.948;2023-04-03T12:32:10;4.44;62.55
77496;SHT31;66600;48.378;9.948;2023-04-03T12:43:17;4.03;63.00
77496;SHT31;66600;48.378;9.948;2023-04-03T12:46:22;3.89;63.07
77496;SHT31;66600;48.378;9.948;2023-04-03T12:48:52;4.17;63.02
77496;SHT31;66600;48.378;9.948;2023-04-03T12:51:35;4.27;62.65
77496;SHT31;66600;48.378;9.948;2023-04-03T12:56:43;4.79;59.99
77496;SHT31;66600;48.378;9.948;2023-04-03T13:01:57;4.72;59.56
77496;SHT31;66600;48.378;9.948;2023-04-03T13:04:23;5.14;60.35
77496;SHT31;66600;48.378;9.948;2023-04-03T13:06:49;4.56;61.07
77496;SHT31;66600;48.378;9.948;2023-04-03T13:09:20;4.82;60.30
77496;SHT31;66600;48.378;9.948;2023-04-03T13:11:50;4.97;59.48
77496;SHT31;66600;48.378;9.948;2023-04-03T13:14:22;5.27;59.45
77496;SHT31;66600;48.378;9.948;2023-04-03T13:16:54;5.34;58.65
77496;SHT31;66600;48.378;9.948;2023-04-03T13:19:22;5.44;59.54
77496;SHT31;66600;48.378;9.948;2023-04-03T13:21:49;4.94;59.34
77496;SHT31;66600;48.378;9.948;2023-04-03T13:24:17;4.59;59.36
77496;SHT31;66600;48.378;9.948;2023-04-03T13:26:43;4.61;58.28
77496;SHT31;66600;48.378;9.948;2023-04-03T13:29:22;4.55;58.29
77496;SHT31;66600;48.378;9.948;2023-04-03T13:31:53;5.17;58.32
77496;SHT31;66600;48.378;9.948;2023-04-03T13:34:19;4.83;57.49
77496;SHT31;66600;48.378;9.948;2023-04-03T13:41:46;4.72;57.26
77496;SHT31;66600;48.378;9.948;2023-04-03T13:44:35;4.93;58.39
77496;SHT31;66600;48.378;9.948;2023-04-03T13:49:38;5.83;56.04
77496;SHT31;66600;48.378;9.948;2023-04-03T13:52:27;5.87;56.58
77496;SHT31;66600;48.378;9.948;2023-04-03T13:54:59;5.70;57.22
77496;SHT31;66600;48.378;9.948;2023-04-03T13:57:25;5.82;57.43
77496;SHT31;66600;48.378;9.948;2023-04-03T13:59:51;5.47;54.70
77496;SHT31;66600;48.378;9.948;2023-04-03T14:02:28;5.66;55.54
77496;SHT31;66600;48.378;9.948;2023-04-03T14:04:56;5.97;56.19
77496;SHT31;66600;48.378;9.948;2023-04-03T14:07:25;5.59;55.10
77496;SHT31;66600;48.378;9.948;2023-04-03T14:09:51;5.80;56.31
77496;SHT31;66600;48.378;9.948;2023-04-03T14:14:46;5.66;54.07
77496;SHT31;66600;48.378;9.948;2023-04-03T14:17:20;5.69;53.36
77496;SHT31;66600;48.378;9.948;2023-04-03T14:19:47;7.48;51.18
77496;SHT31;66600;48.378;9.948;2023-04-03T14:22:16;8.79;46.15
77496;SHT31;66600;48.378;9.948;2023-04-03T14:24:43;9.68;44.73
77496;SHT31;66600;48.378;9.948;2023-04-03T14:27:17;7.87;48.28
77496;SHT31;66600;48.378;9.948;2023-04-03T14:29:43;7.38;49.06
77496;SHT31;66600;48.378;9.948;2023-04-03T14:32:12;6.88;50.15
77496;SHT31;66600;48.378;9.948;2023-04-03T14:34:38;6.16;50.80
77496;SHT31;66600;48.378;9.948;2023-04-03T14:37:04;6.02;52.01
77496;SHT31;66600;48.378;9.948;2023-04-03T14:39:30;5.72;52.05
77496;SHT31;66600;48.378;9.948;2023-04-03T14:41:55;5.06;52.57
77496;SHT31;66600;48.378;9.948;2023-04-03T14:44:20;5.48;53.63
77496;SHT31;66600;48.378;9.948;2023-04-03T14:46:48;5.90;52.30
77496;SHT31;66600;48.378;9.948;2023-04-03T14:49:19;5.79;51.72
77496;SHT31;66600;48.378;9.948;2023-04-03T14:51:46;5.58;51.56
77496;SHT31;66600;48.378;9.948;2023-04-03T14:54:18;5.68;51.35
77496;SHT31;66600;48.378;9.948;2023-04-03T14:56:46;5.49;52.00
77496;SHT31;66600;48.378;9.948;2023-04-03T14:59:13;5.28;52.45
77496;SHT31;66600;48.378;9.948;2023-04-03T15:01:39;4.76;53.93
77496;SHT31;66600;48.378;9.948;2023-04-03T15:04:10;4.86;55.46
77496;SHT31;66600;48.378;9.948;2023-04-03T15:06:36;4.66;54.87
77496;SHT31;66600;48.378;9.948;2023-04-03T15:09:02;4.54;54.85
77496;SHT31;66600;48.378;9.948;2023-04-03T15:11:28;4.63;55.58
77496;SHT31;66600;48.378;9.948;2023-04-03T15:13:53;5.06;55.28
77496;SHT31;66600;48.378;9.948;2023-04-03T15:16:19;5.17;53.79
77496;SHT31;66600;48.378;9.948;2023-04-03T15:18:45;5.13;53.14
77496;SHT31;66600;48.378;9.948;2023-04-03T15:21:11;5.20;52.94
77496;SHT31;66600;48.378;9.948;2023-04-03T15:23:37;5.47;53.32
77496;SHT31;66600;48.378;9.948;2023-04-03T15:26:02;5.32;52.20
77496;SHT31;66600;48.378;9.948;2023-04-03T15:28:33;4.79;52.40
77496;SHT31;66600;48.378;9.948;2023-04-03T15:30:59;4.76;52.98
77496;SHT31;66600;48.378;9.948;2023-04-03T15:33:25;4.90;52.75
77496;SHT31;66600;48.378;9.948;2023-04-03T15:35:50;5.19;50.99
77496;SHT31;66600;48.378;9.948;2023-04-03T15:38:15;5.70;49.66
77496;SHT31;66600;48.378;9.948;2023-04-03T15:40:41;7.31;47.07
77496;SHT31;66600;48.378;9.948;2023-04-03T15:43:07;8.27;43.64
77496;SHT31;66600;48.378;9.948;2023-04-03T15:45:34;9.77;40.43
77496;SHT31;66600;48.378;9.948;2023-04-03T15:48:00;8.27;42.50
77496;SHT31;66600;48.378;9.948;2023-04-03T15:50:26;7.76;44.06
77496;SHT31;66600;48.378;9.948;2023-04-03T15:52:52;6.71;45.85
77496;SHT31;66600;48.378;9.948;2023-04-03T15:55:25;6.89;46.27
77496;SHT31;66600;48.378;9.948;2023-04-03T15:57:52;8.89;42.79
77496;SHT31;66600;48.378;9.948;2023-04-03T16:00:18;9.05;40.22
77496;SHT31;66600;48.378;9.948;2023-04-03T16:02:45;7.46;44.28
77496;SHT31;66600;48.378;9.948;2023-04-03T16:05:12;6.62;46.80
77496;SHT31;66600;48.378;9.948;2023-04-03T16:07:38;6.11;48.59
77496;SHT31;66600;48.378;9.948;2023-04-03T16:10:06;5.69;48.61
77496;SHT31;66600;48.378;9.948;2023-04-03T16:12:32;5.13;49.52
77496;SHT31;66600;48.378;9.948;2023-04-03T16:14:57;5.09;49.57
77496;SHT31;66600;48.378;9.948;2023-04-03T16:17:22;5.14;49.60
77496;SHT31;66600;48.378;9.948;2023-04-03T16:19:48;5.01;48.73
77496;SHT31;66600;48.378;9.948;2023-04-03T16:22:13;5.11;48.51
77496;SHT31;66600;48.378;9.948;2023-04-03T16:24:38;5.27;48.33
77496;SHT31;66600;48.378;9.948;2023-04-03T16:27:04;5.27;47.80
77496;SHT31;66600;48.378;9.948;2023-04-03T16:29:29;5.20;47.71
77496;SHT31;66600;48.378;9.948;2023-04-03T16:31:56;5.35;48.02
77496;SHT31;66600;48.378;9.948;2023-04-03T16:34:22;5.21;48.35
77496;SHT31;66600;48.378;9.948;2023-04-03T16:36:48;4.84;49.04
77496;SHT31;66600;48.378;9.948;2023-04-03T16:39:13;5.04;49.33
77496;SHT31;66600;48.378;9.948;2023-04-03T16:41:39;5.01;49.47
77496;SHT31;66600;48.378;9.948;2023-04-03T16:44:05;5.03;49.60
77496;SHT31;66600;48.378;9.948;2023-04-03T16:46:32;5.40;48.58
77496;SHT31;66600;48.378;9.948;2023-04-03T16:48:57;5.11;48.52
77496;SHT31;66600;48.378;9.948;2023-04-03T16:51:23;5.86;46.81
77496;SHT31;66600;48.378;9.948;2023-04-03T16:53:48;6.21;46.15
77496;SHT31;66600;48.378;9.948;2023-04-03T16:56:13;5.30;47.81
77496;SHT31;66600;48.378;9.948;2023-04-03T16:58:39;4.73;49.87
77496;SHT31;66600;48.378;9.948;2023-04-03T17:01:15;4.58;50.48
77496;SHT31;66600;48.378;9.948;2023-04-03T17:03:41;4.44;51.01
77496;SHT31;66600;48.378;9.948;2023-04-03T17:06:07;4.35;51.00
77496;SHT31;66600;48.378;9.948;2023-04-03T17:08:33;4.34;51.20
77496;SHT31;66600;48.378;9.948;2023-04-03T17:10:58;4.22;51.62
77496;SHT31;66600;48.378;9.948;2023-04-03T17:13:24;4.28;51.45
77496;SHT31;66600;48.378;9.948;2023-04-03T17:15:56;4.30;50.45
77496;SHT31;66600;48.378;9.948;2023-04-03T17:18:21;4.30;49.99
77496;SHT31;66600;48.378;9.948;2023-04-03T17:20:47;4.41;49.69
77496;SHT31;66600;48.378;9.948;2023-04-03T17:23:13;4.42;49.11
77496;SHT31;66600;48.378;9.948;2023-04-03T17:25:38;4.30;48.93
77496;SHT31;66600;48.378;9.948;2023-04-03T17:28:03;4.33;49.14
77496;SHT31;66600;48.378;9.948;2023-04-03T17:30:29;4.24;49.67
77496;SHT31;66600;48.378;9.948;2023-04-03T17:32:54;4.16;50.74
77496;SHT31;66600;48.378;9.948;2023-04-03T17:35:19;4.03;50.61
77496;SHT31;66600;48.378;9.948;2023-04-03T17:37:47;3.93;49.66
77496;SHT31;66600;48.378;9.948;2023-04-03T17:40:13;3.97;50.49